Time;durP1;ratioP1;P1;durP2;ratioP2;P2;SDS_P1;SDS_P2;PMS_P1;PMS_P2;Temp;Humidity;BMP_temperature;BMP_pressure;BME280_temperature;BME280_humidity;BME280_pressure;Samples;Min_cycle;Max_cycle;Signal;HPM_P1;HPM_P2
2023/06/23 00:01:00;;;;;;;4.63;2.63;;;;;;;19.69;100.00;98741.94;5077028;28;20024;-49
2023/06/23 00:03:26;;;;;;;4.00;2.33;;;;;;;19.68;100.00;98748.53;5075633;28;20035;-49
2023/06/23 00:05:51;;;;;;;4.20;2.50;;;;;;;19.75;100.00;98746.38;5094701;28;20057;-49
2023/06/23 00:08:17;;;;;;;8.55;2.58;;;;;;;19.70;100.00;98752.66;5078576;28;20425;-49
2023/06/23 00:10:48;;;;;;;4.45;2.70;;;;;;;19.62;100.00;98753.13;5075315;28;20039;-49
2023/06/23 00:13:13;;;;;;;3.80;2.60;;;;;;;19.69;100.00;98756.47;5078722;28;20047;-49
2023/06/23 00:15:39;;;;;;;3.50;2.42;;;;;;;19.64;100.00;98767.41;5068679;28;20499;-49
2023/06/23 00:18:04;;;;;;;3.67;2.55;;;;;;;19.68;100.00;98765.00;5079301;28;20504;-49
2023/06/23 00:20:30;;;;;;;3.70;2.42;;;;;;;19.73;100.00;98767.78;5080963;28;20043;-49
2023/06/23 00:22:55;;;;;;;3.10;2.25;;;;;;;19.81;100.00;98783.75;5076605;28;20035;-49
2023/06/23 00:25:21;;;;;;;4.03;2.60;;;;;;;19.78;100.00;98788.94;5084393;28;20464;-49
2023/06/23 00:27:46;;;;;;;5.07;2.90;;;;;;;19.63;100.00;98789.63;5087568;28;20043;-49
2023/06/23 00:30:13;;;;;;;3.72;3.10;;;;;;;19.58;100.00;98778.63;5078682;28;20024;-49
2023/06/23 00:32:39;;;;;;;6.35;3.30;;;;;;;19.67;100.00;98788.03;5075537;28;20024;-49
2023/06/23 00:35:07;;;;;;;3.97;2.70;;;;;;;19.67;100.00;98780.63;5077181;28;20063;-49
2023/06/23 00:37:32;;;;;;;4.97;2.90;;;;;;;19.66;100.00;98789.09;5078184;28;20115;-49
2023/06/23 00:39:58;;;;;;;4.15;3.25;;;;;;;19.59;100.00;98783.81;5075415;28;20528;-50
2023/06/23 00:42:24;;;;;;;3.95;3.08;;;;;;;19.59;100.00;98788.50;5079270;28;20023;-49
2023/06/23 00:44:49;;;;;;;4.60;3.00;;;;;;;19.59;100.00;98797.53;5082236;28;20065;-49
2023/06/23 00:47:16;;;;;;;4.32;2.75;;;;;;;19.51;100.00;98795.28;5069201;28;20395;-49
2023/06/23 00:49:42;;;;;;;3.70;2.78;;;;;;;19.51;100.00;98805.44;5073956;28;20024;-49
2023/06/23 00:52:07;;;;;;;5.18;2.72;;;;;;;19.49;100.00;98806.53;5075746;28;20035;-50
2023/06/23 00:54:35;;;;;;;4.10;2.75;;;;;;;19.49;100.00;98801.06;5069486;28;20074;-49
2023/06/23 00:57:02;;;;;;;4.53;2.85;;;;;;;19.52;100.00;98807.09;5072510;28;20034;-49
2023/06/23 00:59:28;;;;;;;4.57;2.50;;;;;;;19.54;100.00;98805.72;5071765;28;20051;-49
2023/06/23 01:01:59;;;;;;;3.30;2.35;;;;;;;19.49;100.00;98801.06;5069934;28;20117;-50
2023/06/23 01:04:29;;;;;;;5.85;3.03;;;;;;;19.47;100.00;98789.50;5076704;28;20031;-49
2023/06/23 01:06:54;;;;;;;3.58;2.75;;;;;;;19.38;100.00;98813.00;5088140;28;20031;-49
2023/06/23 01:09:47;;;;;;;4.72;3.13;;;;;;;19.43;100.00;98810.31;5082830;28;20027;-49
2023/06/23 01:12:26;;;;;;;4.55;2.67;;;;;;;19.34;100.00;98824.78;5068994;28;20023;-50
2023/06/23 01:15:23;;;;;;;4.82;3.25;;;;;;;19.19;100.00;98844.66;5063371;28;20109;-49
2023/06/23 01:17:57;;;;;;;3.10;2.50;;;;;;;18.94;100.00;98853.41;5061185;28;20028;-50
2023/06/23 01:20:27;;;;;;;3.63;3.10;;;;;;;18.82;100.00;98861.78;5072174;28;20020;-49
2023/06/23 01:23:08;;;;;;;4.03;2.83;;;;;;;18.64;100.00;98871.13;5084705;28;20077;-49
2023/06/23 01:25:48;;;;;;;3.63;2.97;;;;;;;18.53;100.00;98877.56;5077074;28;20024;-49
2023/06/23 01:28:42;;;;;;;6.25;3.15;;;;;;;18.47;100.00;98873.94;5080015;28;20438;-49
2023/06/23 01:31:13;;;;;;;3.25;2.30;;;;;;;18.38;100.00;98870.78;5064455;28;20114;-49
2023/06/23 01:33:43;;;;;;;6.97;2.10;;;;;;;18.23;100.00;98864.25;5073263;28;20527;-49
2023/06/23 01:36:20;;;;;;;2.85;2.10;;;;;;;18.20;100.00;98862.03;5072468;28;20039;-49
2023/06/23 01:38:50;;;;;;;2.30;2.00;;;;;;;18.17;100.00;98872.41;5071798;28;20471;-49
2023/06/23 01:41:23;;;;;;;2.85;2.00;;;;;;;18.15;100.00;98874.56;5084438;28;20020;-49
2023/06/23 01:43:53;;;;;;;3.38;2.00;;;;;;;18.05;100.00;98884.53;5080771;28;20410;-50
2023/06/23 01:46:25;;;;;;;3.00;2.22;;;;;;;17.91;100.00;98895.81;5068772;28;20060;-49
2023/06/23 01:48:55;;;;;;;3.17;2.15;;;;;;;17.80;100.00;98899.47;5068360;28;20480;-49
2023/06/23 01:51:25;;;;;;;5.82;3.45;;;;;;;17.80;100.00;98904.13;5076193;28;20023;-49
2023/06/23 01:53:51;;;;;;;4.03;2.72;;;;;;;17.81;100.00;98908.50;5075089;28;20056;-49
2023/06/23 01:56:18;;;;;;;3.80;2.60;;;;;;;17.84;100.00;98913.47;5081616;28;20174;-50
2023/06/23 01:58:44;;;;;;;3.70;2.40;;;;;;;17.82;100.00;98913.75;5082022;28;20027;-49
2023/06/23 02:01:13;;;;;;;4.80;2.67;;;;;;;17.76;100.00;98914.69;5073499;28;20032;-49
2023/06/23 02:03:40;;;;;;;5.30;2.63;;;;;;;17.74;100.00;98912.22;5077383;28;20020;-49
2023/06/23 02:06:07;;;;;;;5.45;3.03;;;;;;;17.71;100.00;98907.22;5075330;28;20040;-49
2023/06/23 02:08:34;;;;;;;4.50;2.83;;;;;;;17.68;100.00;98913.19;5080126;28;20032;-49
2023/06/23 02:11:01;;;;;;;6.70;3.05;;;;;;;17.66;100.00;98915.34;5075473;28;20024;-49
2023/06/23 02:13:28;;;;;;;9.38;3.10;;;;;;;17.65;100.00;98905.47;5076666;28;20110;-49
2023/06/23 02:15:55;;;;;;;4.90;3.28;;;;;;;17.56;100.00;98903.41;5086997;28;20028;-49
2023/06/23 02:18:21;;;;;;;5.70;3.60;;;;;;;17.50;100.00;98908.78;5072810;28;20099;-49
2023/06/23 02:20:50;;;;;;;7.38;3.30;;;;;;;17.47;100.00;98914.72;5079348;28;20036;-49
2023/06/23 02:23:16;;;;;;;8.90;3.25;;;;;;;17.36;100.00;98915.59;5070807;28;20020;-49
2023/06/23 02:25:43;;;;;;;5.15;2.92;;;;;;;17.25;100.00;98920.06;5073253;28;20031;-49
2023/06/23 02:28:11;;;;;;;6.15;3.60;;;;;;;17.09;100.00;98931.78;5075275;28;20020;-50
2023/06/23 02:30:38;;;;;;;9.02;3.50;;;;;;;17.04;100.00;98940.69;5085832;28;20031;-49
2023/06/23 02:33:05;;;;;;;4.70;3.35;;;;;;;16.95;100.00;98949.50;5066692;28;20061;-49
2023/06/23 02:35:33;;;;;;;4.65;3.10;;;;;;;16.83;100.00;98955.84;5083697;28;20369;-49
2023/06/23 02:38:01;;;;;;;5.30;3.00;;;;;;;16.86;100.00;98954.53;5076128;28;20383;-49
2023/06/23 02:40:29;;;;;;;4.75;3.20;;;;;;;16.80;100.00;98959.06;5074578;28;20048;-50
2023/06/23 02:43:18;;;;;;;7.18;2.78;;;;;;;16.74;100.00;98968.19;5077214;28;20024;-49
2023/06/23 02:45:49;;;;;;;4.50;2.88;;;;;;;16.72;100.00;98969.50;5074665;28;20038;-49
2023/06/23 02:48:18;;;;;;;3.10;2.72;;;;;;;16.70;100.00;98972.44;5078688;28;20451;-49
2023/06/23 02:50:45;;;;;;;4.80;2.90;;;;;;;16.66;100.00;98973.97;5088143;28;20431;-50
2023/06/23 02:53:18;;;;;;;3.83;2.72;;;;;;;16.68;100.00;98985.50;5072062;28;20066;-50
2023/06/23 02:55:46;;;;;;;4.18;2.67;;;;;;;16.68;100.00;98990.97;5083236;28;20035;-50
2023/06/23 02:58:16;;;;;;;4.65;3.30;;;;;;;16.72;100.00;98983.16;5060972;28;20039;-49
2023/06/23 03:00:43;;;;;;;4.57;3.17;;;;;;;16.68;100.00;98984.69;5074153;28;20024;-50
2023/06/23 03:03:14;;;;;;;5.50;3.88;;;;;;;16.68;100.00;98990.16;5067966;28;20122;-49
2023/06/23 03:05:40;;;;;;;7.22;4.18;;;;;;;16.69;100.00;98983.59;5067578;28;20112;-50
2023/06/23 03:08:06;;;;;;;5.05;3.85;;;;;;;16.70;100.00;98998.94;5070163;28;20119;-50
2023/06/23 03:10:32;;;;;;;6.10;3.83;;;;;;;16.75;100.00;98994.44;5081382;28;20383;-49
2023/06/23 03:13:00;;;;;;;5.55;4.18;;;;;;;16.74;100.00;98994.66;5086258;28;20081;-49
2023/06/23 03:15:26;;;;;;;6.45;4.50;;;;;;;16.72;100.00;98997.63;5069379;28;20419;-49
2023/06/23 03:17:58;;;;;;;7.80;4.78;;;;;;;16.78;100.00;99001.34;5070037;28;20020;-49
2023/06/23 03:20:33;;;;;;;7.32;5.28;;;;;;;16.76;100.00;98998.81;5069619;28;20020;-49
2023/06/23 03:23:03;;;;;;;8.70;5.63;;;;;;;16.82;100.00;99000.63;5072549;28;20024;-49
2023/06/23 03:25:29;;;;;;;10.07;6.07;;;;;;;16.81;100.00;98998.13;5068724;28;20032;-49
2023/06/23 03:27:58;;;;;;;9.52;6.78;;;;;;;16.81;100.00;99003.59;5078954;28;20081;-49
2023/06/23 03:30:44;;;;;;;11.63;6.72;;;;;;;16.79;100.00;99003.84;5076058;28;20070;-49
2023/06/23 03:33:18;;;;;;;9.50;7.05;;;;;;;16.88;100.00;98996.09;5067960;28;20514;-49
2023/06/23 03:35:46;;;;;;;11.30;7.78;;;;;;;16.82;100.00;99007.97;5071117;28;20388;-49
2023/06/23 03:38:17;;;;;;;9.00;7.17;;;;;;;16.77;100.00;99010.59;5072966;28;20399;-50
2023/06/23 03:41:00;;;;;;;11.40;8.02;;;;;;;16.85;100.00;99018.47;5078698;28;20024;-49
2023/06/23 03:43:39;;;;;;;12.60;8.18;;;;;;;16.93;100.00;99020.00;5077560;28;20016;-49
2023/06/23 03:46:12;;;;;;;13.25;8.60;;;;;;;16.92;100.00;99024.59;5072784;28;20563;-49
2023/06/23 03:48:41;;;;;;;12.68;8.63;;;;;;;16.88;100.00;99028.06;5084533;28;20108;-49
2023/06/23 03:51:12;;;;;;;10.82;8.13;;;;;;;16.96;100.00;99035.91;5075829;28;20130;-49
2023/06/23 03:53:38;;;;;;;12.40;9.07;;;;;;;16.94;100.00;99029.84;5076571;28;20032;-49
2023/06/23 03:56:07;;;;;;;13.07;8.52;;;;;;;17.02;100.00;99034.94;5082960;28;20029;-49
2023/06/23 03:58:34;;;;;;;12.10;8.40;;;;;;;17.07;100.00;99026.84;5071944;28;20021;-49
2023/06/23 04:01:02;;;;;;;13.35;8.85;;;;;;;17.07;100.00;99024.13;5066923;28;20036;-49
2023/06/23 04:03:30;;;;;;;14.80;9.00;;;;;;;17.12;100.00;99031.59;5077282;28;20074;-49
2023/06/23 04:05:57;;;;;;;14.45;9.40;;;;;;;17.19;100.00;99040.53;5077853;28;20284;-49
2023/06/23 04:08:27;;;;;;;15.13;8.80;;;;;;;17.21;100.00;99032.88;5075919;28;20024;-49
2023/06/23 04:10:56;;;;;;;14.02;9.43;;;;;;;17.20;100.00;99032.06;5072906;28;20028;-49
2023/06/23 04:13:22;;;;;;;13.40;9.32;;;;;;;17.25;100.00;99018.50;5078293;28;20024;-49
2023/06/23 04:15:50;;;;;;;14.73;9.52;;;;;;;17.29;100.00;99022.41;5070922;28;20032;-49
2023/06/23 04:18:18;;;;;;;14.27;9.27;;;;;;;17.28;100.00;99031.69;5073627;28;20474;-49
2023/06/23 04:20:45;;;;;;;15.05;9.23;;;;;;;17.46;100.00;99030.69;5075412;28;20031;-49
2023/06/23 04:23:13;;;;;;;14.60;9.15;;;;;;;17.39;100.00;99023.69;5083776;28;20383;-50
2023/06/23 04:25:39;;;;;;;11.27;8.15;;;;;;;17.60;100.00;99033.13;5092148;28;20026;-50
2023/06/23 04:28:06;;;;;;;13.20;9.27;;;;;;;17.56;100.00;99029.25;5077114;28;20443;-49
2023/06/23 04:30:35;;;;;;;15.75;9.13;;;;;;;17.61;100.00;99038.38;5081388;28;20020;-49
2023/06/23 04:33:00;;;;;;;14.57;8.77;;;;;;;17.69;100.00;99045.38;5074985;28;20380;-50
2023/06/23 04:35:26;;;;;;;13.20;8.80;;;;;;;17.83;100.00;99040.47;5083597;28;20342;-50
2023/06/23 04:38:06;;;;;;;13.80;9.05;;;;;;;17.82;100.00;99038.81;5075836;28;20020;-50
2023/06/23 04:40:51;;;;;;;14.90;9.48;;;;;;;17.79;100.00;99047.44;5089133;28;20111;-50
2023/06/23 04:43:18;;;;;;;14.18;9.70;;;;;;;17.71;100.00;99049.53;5075706;28;20744;-48
2023/06/23 04:45:54;;;;;;;15.65;10.00;;;;;;;17.63;100.00;99063.59;5079016;28;20034;-48
2023/06/23 04:48:25;;;;;;;14.38;9.10;;;;;;;17.74;100.00;99065.44;5071654;28;20474;-47
2023/06/23 04:50:54;;;;;;;19.98;10.52;;;;;;;17.68;100.00;99052.75;5078135;28;20148;-47
2023/06/23 04:53:25;;;;;;;18.83;11.32;;;;;;;17.71;100.00;99057.72;5073863;28;20024;-47
2023/06/23 04:55:56;;;;;;;23.48;11.30;;;;;;;17.71;100.00;99073.28;5080350;28;20537;-48
2023/06/23 04:58:26;;;;;;;17.27;11.05;;;;;;;17.69;100.00;99070.81;5077694;28;20066;-48
2023/06/23 05:00:51;;;;;;;;;;;;;;;17.71;100.00;99071.41;5085709;28;20028;-48
2023/06/23 05:03:20;;;;;;;17.67;12.00;;;;;;;17.84;100.00;99070.34;5075977;28;19916;-48
2023/06/23 05:05:46;;;;;;;16.23;11.55;;;;;;;18.09;100.00;99069.13;5083567;28;20028;-48
2023/06/23 05:08:13;;;;;;;18.42;12.48;;;;;;;18.09;100.00;99056.28;5071783;28;20396;-48
2023/06/23 05:10:40;;;;;;;20.38;12.98;;;;;;;18.20;100.00;99070.97;5083058;28;20035;-48
2023/06/23 05:13:10;;;;;;;19.13;12.95;;;;;;;18.13;100.00;99075.78;5072342;28;20681;-48
2023/06/23 05:15:35;;;;;;;19.67;12.73;;;;;;;18.01;100.00;99067.63;5070556;28;20468;-48
2023/06/23 05:18:04;;;;;;;20.02;14.13;;;;;;;18.08;100.00;99076.53;5068809;28;20070;-48
2023/06/23 05:20:31;;;;;;;20.17;13.98;;;;;;;17.94;100.00;99084.19;5064029;28;20036;-48
2023/06/23 05:23:02;;;;;;;24.58;15.02;;;;;;;17.90;100.00;99069.34;5070035;28;20035;-48
2023/06/23 05:25:30;;;;;;;21.48;15.35;;;;;;;17.92;100.00;99093.72;5076369;28;20464;-48
2023/06/23 05:28:00;;;;;;;24.65;16.40;;;;;;;17.96;100.00;99081.22;5073048;28;20035;-48
2023/06/23 05:30:27;;;;;;;25.35;16.20;;;;;;;18.09;100.00;99088.31;5064122;28;20806;-48
2023/06/23 05:32:55;;;;;;;26.52;16.58;;;;;;;17.97;100.00;99091.09;5069264;28;20028;-49
2023/06/23 05:35:22;;;;;;;27.10;18.10;;;;;;;17.89;100.00;99102.41;5082741;28;20122;-48
2023/06/23 05:37:49;;;;;;;29.55;17.38;;;;;;;17.78;100.00;99100.53;5070697;28;20024;-48
2023/06/23 05:40:15;;;;;;;27.58;17.88;;;;;;;17.78;100.00;99101.38;5069342;28;20359;-48
2023/06/23 05:42:42;;;;;;;28.17;18.95;;;;;;;17.62;100.00;99111.16;5074127;28;20016;-48
2023/06/23 05:45:09;;;;;;;31.45;19.83;;;;;;;17.69;100.00;99100.91;5082855;28;20028;-48
2023/06/23 05:47:45;;;;;;;29.20;18.33;;;;;;;17.90;100.00;99107.66;5070110;28;20031;-48
2023/06/23 05:50:33;;;;;;;28.70;17.98;;;;;;;18.05;100.00;99098.94;5071556;28;20423;-48
2023/06/23 05:53:02;;;;;;;27.40;18.23;;;;;;;18.12;100.00;99099.59;5065850;28;20034;-48
2023/06/23 05:55:30;;;;;;;29.65;19.42;;;;;;;18.10;100.00;99098.16;5071589;28;20055;-48
2023/06/23 05:58:00;;;;;;;32.58;20.88;;;;;;;18.08;100.00;99103.91;5072105;28;20383;-48
2023/06/23 06:00:31;;;;;;;30.48;20.23;;;;;;;18.24;100.00;99096.81;5072712;28;21786;-48
2023/06/23 06:03:01;;;;;;;34.63;19.48;;;;;;;18.35;100.00;99097.81;5073931;28;20078;-48
2023/06/23 06:05:29;;;;;;;32.13;20.05;;;;;;;18.24;100.00;99087.78;5067224;28;20360;-48
2023/06/23 06:07:56;;;;;;;33.90;20.10;;;;;;;18.32;100.00;99090.94;5076136;28;20027;-48
2023/06/23 06:10:23;;;;;;;33.15;20.63;;;;;;;18.45;100.00;99089.78;5078586;28;20024;-48
2023/06/23 06:12:50;;;;;;;32.70;20.70;;;;;;;18.62;100.00;99089.78;5069976;28;20034;-48
2023/06/23 06:15:17;;;;;;;29.85;19.08;;;;;;;18.87;100.00;99094.88;5074845;28;20028;-48
2023/06/23 06:17:43;;;;;;;32.58;19.48;;;;;;;19.12;100.00;99093.59;5081516;28;20030;-48
2023/06/23 06:20:11;;;;;;;30.95;18.27;;;;;;;18.97;100.00;99102.44;5071793;28;20028;-49
2023/06/23 06:22:39;;;;;;;29.35;19.30;;;;;;;18.98;100.00;99112.31;5071167;28;20074;-48
2023/06/23 06:25:07;;;;;;;28.33;18.52;;;;;;;18.85;100.00;99108.00;5095331;28;20020;-48
2023/06/23 06:27:33;;;;;;;31.00;18.38;;;;;;;18.95;100.00;99107.34;5088784;28;20048;-48
2023/06/23 06:30:02;;;;;;;27.58;18.15;;;;;;;18.99;100.00;99108.47;5067314;28;20028;-48
2023/06/23 06:32:32;;;;;;;29.05;18.27;;;;;;;18.96;100.00;99115.28;5068377;28;20027;-48
2023/06/23 06:35:04;;;;;;;28.80;18.10;;;;;;;19.14;100.00;99099.66;5066448;28;20051;-46
2023/06/23 06:37:34;;;;;;;26.52;17.88;;;;;;;19.33;100.00;99114.75;5084750;28;20093;-47
2023/06/23 06:40:03;;;;;;;26.33;17.95;;;;;;;19.43;100.00;99119.56;5074857;28;20037;-46
2023/06/23 06:42:29;;;;;;;29.08;17.95;;;;;;;19.45;100.00;99112.72;5071648;28;20026;-46
2023/06/23 06:44:54;;;;;;;24.77;16.80;;;;;;;19.64;100.00;99126.13;5069147;28;20024;-47
2023/06/23 06:47:21;;;;;;;30.50;17.92;;;;;;;19.74;100.00;99120.81;5067275;28;20016;-46
2023/06/23 06:49:49;;;;;;;25.55;17.40;;;;;;;19.70;100.00;99127.88;5063859;28;20028;-47
2023/06/23 06:52:15;;;;;;;24.33;17.35;;;;;;;19.38;100.00;99134.03;5069641;28;20041;-45
2023/06/23 06:54:43;;;;;;;26.40;16.58;;;;;;;19.64;100.00;99143.44;5055095;28;20097;-46
2023/06/23 06:57:08;;;;;;;27.75;18.60;;;;;;;19.38;100.00;99150.47;5074075;28;20023;-46
2023/06/23 06:59:34;;;;;;;28.02;18.25;;;;;;;19.03;100.00;99157.09;5079232;28;20638;-45
2023/06/23 07:02:00;;;;;;;25.90;15.95;;;;;;;19.00;100.00;99170.50;5071374;28;20521;-46
2023/06/23 07:04:27;;;;;;;25.20;16.00;;;;;;;19.17;100.00;99181.44;5070922;28;20020;-46
2023/06/23 07:06:53;;;;;;;25.30;16.17;;;;;;;19.22;100.00;99185.09;5065172;28;20024;-46
2023/06/23 07:09:19;;;;;;;35.03;16.95;;;;;;;19.43;100.00;99186.22;5081199;28;20099;-46
2023/06/23 07:11:48;;;;;;;27.17;16.38;;;;;;;19.64;100.00;99203.81;5079035;28;20032;-46
2023/06/23 07:14:13;;;;;;;25.85;15.70;;;;;;;20.16;100.00;99186.13;5080105;28;20029;-46
2023/06/23 07:16:39;;;;;;;21.73;14.40;;;;;;;20.94;100.00;99188.63;5084280;28;20024;-46
2023/06/23 07:19:04;;;;;;;21.48;13.68;;;;;;;21.30;100.00;99189.72;5078193;28;20043;-46
2023/06/23 07:21:29;;;;;;;20.30;13.80;;;;;;;21.18;100.00;99195.41;5075131;28;20020;-46
2023/06/23 07:23:55;;;;;;;21.20;14.25;;;;;;;20.96;100.00;99201.00;5079867;28;20034;-47
2023/06/23 07:29:07;;;;;;;22.20;15.20;;;;;;;19.92;100.00;99138.88;5076599;22;20060;-76
2023/06/23 07:31:35;;;;;;;23.40;15.07;;;;;;;20.81;100.00;99203.63;5068338;28;20036;-76
2023/06/23 07:34:00;;;;;;;24.75;14.82;;;;;;;21.18;100.00;99209.16;5052629;28;20115;-76
2023/06/23 07:36:26;;;;;;;23.40;13.38;;;;;;;21.35;100.00;99208.19;5069185;28;20505;-75
2023/06/23 07:38:51;;;;;;;19.75;12.95;;;;;;;22.36;100.00;99203.56;5069716;28;20025;-75
2023/06/23 07:41:16;;;;;;;19.30;12.75;;;;;;;22.18;100.00;99207.59;5066880;28;20020;-74
2023/06/23 07:43:43;;;;;;;18.67;12.90;;;;;;;22.00;100.00;99226.25;5076108;28;20033;-77
2023/06/23 07:46:09;;;;;;;17.70;12.35;;;;;;;21.52;100.00;99236.44;5074965;28;20017;-76
2023/06/23 07:48:34;;;;;;;20.38;11.82;;;;;;;21.23;100.00;99228.47;5053423;28;20025;-73
2023/06/23 07:51:00;;;;;;;19.65;12.60;;;;;;;21.18;100.00;99231.19;5052251;28;20599;-76
2023/06/23 07:53:25;;;;;;;18.58;11.82;;;;;;;22.39;100.00;99225.06;5062487;28;20035;-74
2023/06/23 07:55:50;;;;;;;21.67;11.63;;;;;;;23.05;100.00;99214.19;5055055;28;20028;-76
2023/06/23 07:58:15;;;;;;;16.65;11.15;;;;;;;22.49;100.00;99222.34;5073575;28;20064;-77
2023/06/23 08:00:41;;;;;;;15.57;10.55;;;;;;;22.74;100.00;99218.78;5062902;28;20033;-79
2023/06/23 08:03:06;;;;;;;15.48;10.80;;;;;;;23.81;100.00;99243.69;5057592;28;20068;-73
2023/06/23 08:05:31;;;;;;;17.42;11.00;;;;;;;24.06;100.00;99237.28;5065748;28;20047;-78
2023/06/23 08:07:57;;;;;;;16.38;11.30;;;;;;;23.78;100.00;99247.00;5069378;28;20029;-78
2023/06/23 08:10:22;;;;;;;17.48;11.10;;;;;;;24.08;100.00;99244.44;5075209;28;20035;-75
2023/06/23 08:12:47;;;;;;;16.10;11.15;;;;;;;24.53;100.00;99229.63;5073422;28;20028;-74
2023/06/23 08:15:13;;;;;;;14.20;10.35;;;;;;;24.30;100.00;99235.81;5048173;28;20028;-76
2023/06/23 08:17:38;;;;;;;17.27;11.27;;;;;;;24.77;100.00;99231.72;5071480;28;20106;-74
2023/06/23 08:20:04;;;;;;;14.70;9.50;;;;;;;27.29;100.00;99234.22;5073963;28;20121;-74
2023/06/23 08:22:29;;;;;;;12.82;8.73;;;;;;;27.92;100.00;99224.50;5070498;28;20020;-73
2023/06/23 08:24:54;;;;;;;16.63;9.00;;;;;;;27.93;96.17;99234.50;5054858;28;20040;-75
2023/06/23 08:27:20;;;;;;;12.05;8.40;;;;;;;27.38;100.00;99232.41;5073255;28;20097;-76
2023/06/23 08:29:45;;;;;;;11.25;8.77;;;;;;;26.64;100.00;99249.59;5065838;28;20025;-75
2023/06/23 08:32:11;;;;;;;14.82;9.80;;;;;;;25.25;100.00;99251.31;5070057;28;20477;-76
2023/06/23 08:34:37;;;;;;;14.05;8.48;;;;;;;26.00;100.00;99251.75;5074572;28;20027;-76
2023/06/23 08:37:03;;;;;;;12.50;8.05;;;;;;;28.40;100.00;99246.31;5075173;28;20497;-76
2023/06/23 08:39:28;;;;;;;10.35;7.63;;;;;;;29.63;84.88;99255.47;5079468;28;20052;-76
2023/06/23 08:41:54;;;;;;;15.13;8.38;;;;;;;28.21;90.39;99253.97;5066316;28;20081;-76
2023/06/23 08:44:25;;;;;;;11.30;7.65;;;;;;;26.09;100.00;99251.91;5069956;28;20097;-76
2023/06/23 08:46:56;;;;;;;10.30;8.38;;;;;;;24.78;100.00;99269.34;5073433;28;20103;-75
2023/06/23 08:49:23;;;;;;;12.25;8.65;;;;;;;23.81;100.00;99270.50;5051799;28;20021;-76
2023/06/23 08:51:50;;;;;;;12.68;8.10;;;;;;;24.05;100.00;99270.72;5054781;28;20048;-75
2023/06/23 08:54:16;;;;;;;15.65;8.25;;;;;;;24.26;100.00;99268.72;5064793;28;20020;-76
2023/06/23 08:56:43;;;;;;;10.27;7.85;;;;;;;23.80;100.00;99266.91;5073901;28;20477;-75
2023/06/23 08:59:10;;;;;;;12.45;7.18;;;;;;;24.55;100.00;99270.84;5069872;28;20067;-76
2023/06/23 09:01:36;;;;;;;10.80;6.50;;;;;;;24.83;100.00;99266.53;5066277;28;20839;-76
2023/06/23 09:04:01;;;;;;;12.38;6.50;;;;;;;25.47;100.00;99275.81;5074209;28;20044;-76
2023/06/23 09:06:26;;;;;;;8.88;5.85;;;;;;;25.54;100.00;99288.22;5073678;28;20051;-76
2023/06/23 09:08:52;;;;;;;7.32;5.65;;;;;;;27.16;100.00;99262.72;5064744;28;20046;-76
2023/06/23 09:11:17;;;;;;;9.88;5.00;;;;;;;29.74;81.45;99274.75;5073318;28;20038;-76
2023/06/23 09:13:45;;;;;;;10.57;5.07;;;;;;;30.71;70.01;99264.50;5073562;28;20033;-76
2023/06/23 09:16:11;;;;;;;6.65;4.60;;;;;;;30.54;65.53;99286.78;5069212;28;20016;-76
2023/06/23 09:18:40;;;;;;;8.00;5.00;;;;;;;29.80;65.74;99274.31;5065340;28;20021;-76
2023/06/23 09:21:07;;;;;;;9.63;4.50;;;;;;;28.35;71.69;99274.28;5073144;28;20024;-75
2023/06/23 09:23:34;;;;;;;9.18;5.88;;;;;;;27.49;74.36;99291.41;5072642;28;20028;-76
2023/06/23 09:26:03;;;;;;;9.15;5.90;;;;;;;26.29;90.46;99286.94;5071065;28;20044;-76
2023/06/23 09:28:31;;;;;;;8.63;4.93;;;;;;;24.50;100.00;99296.59;5071249;28;20032;-76
2023/06/23 09:30:58;;;;;;;8.18;4.78;;;;;;;24.46;100.00;99299.09;5067507;28;20120;-75
2023/06/23 09:33:26;;;;;;;10.80;6.50;;;;;;;25.46;100.00;99293.53;5055271;28;20024;-75
2023/06/23 09:35:56;;;;;;;9.05;5.00;;;;;;;28.13;83.11;99286.94;5072399;28;20112;-75
2023/06/23 09:38:26;;;;;;;9.23;4.40;;;;;;;30.05;68.83;99297.06;5072009;28;20058;-75
2023/06/23 09:41:07;;;;;;;5.50;3.92;;;;;;;32.89;58.73;99281.63;5071635;28;20036;-75
2023/06/23 09:43:43;;;;;;;6.10;4.28;;;;;;;33.69;53.20;99274.22;5067430;28;20036;-76
2023/06/23 09:46:10;;;;;;;9.40;5.57;;;;;;;29.91;62.77;99286.00;5050477;28;20063;-75
2023/06/23 09:48:36;;;;;;;8.27;5.60;;;;;;;28.06;72.75;99292.09;5046775;28;20028;-76
2023/06/23 09:51:05;;;;;;;5.40;4.47;;;;;;;28.95;68.79;99296.41;5071371;28;20030;-75
2023/06/23 09:53:40;;;;;;;6.88;4.00;;;;;;;29.76;62.95;99290.00;5069275;28;20032;-76
2023/06/23 09:56:12;;;;;;;5.90;3.35;;;;;;;31.42;55.81;99285.78;5073922;28;20115;-75
2023/06/23 09:58:39;;;;;;;4.32;2.97;;;;;;;32.50;50.23;99286.47;5074709;28;20478;-75
2023/06/23 10:01:10;;;;;;;4.40;3.28;;;;;;;33.28;50.60;99267.50;5072059;28;20032;-77
2023/06/23 10:03:43;;;;;;;4.75;2.95;;;;;;;34.17;45.71;99281.16;5052139;28;20020;-76
2023/06/23 10:06:08;;;;;;;6.95;2.92;;;;;;;34.50;44.79;99278.22;5066219;28;20442;-76
2023/06/23 10:08:39;;;;;;;9.73;2.90;;;;;;;35.66;43.92;99277.75;5065126;28;20067;-76
2023/06/23 10:11:06;;;;;;;4.78;2.75;;;;;;;35.59;42.69;99283.19;5050283;28;20052;-75
2023/06/23 10:13:32;;;;;;;7.53;3.30;;;;;;;33.59;45.72;99269.88;5067297;28;20028;-76
2023/06/23 10:15:59;;;;;;;4.75;3.20;;;;;;;32.88;47.56;99285.59;5073588;28;20039;-76
2023/06/23 10:18:25;;;;;;;4.18;3.17;;;;;;;34.38;43.96;99284.69;5069190;28;20448;-76
2023/06/23 10:20:50;;;;;;;7.25;3.70;;;;;;;31.99;47.10;99285.53;5072366;28;20028;-77
2023/06/23 10:23:16;;;;;;;6.32;3.25;;;;;;;33.91;46.63;99276.63;5074803;28;20021;-77
2023/06/23 10:25:43;;;;;;;10.30;3.53;;;;;;;33.78;47.35;99274.97;5054341;28;20033;-79
2023/06/23 10:28:11;;;;;;;6.80;4.00;;;;;;;33.04;48.11;99285.84;5070470;28;20087;-77
2023/06/23 10:30:39;;;;;;;8.10;4.07;;;;;;;31.89;50.89;99277.47;5051770;28;20127;-77
2023/06/23 10:33:07;;;;;;;4.70;3.13;;;;;;;31.88;50.16;99289.81;5068946;28;20401;-77
2023/06/23 10:35:33;;;;;;;5.15;3.20;;;;;;;33.23;45.03;99276.13;5064810;28;20290;-75
2023/06/23 10:38:11;;;;;;;4.90;3.00;;;;;;;35.14;44.27;99284.28;5065363;28;20551;-77
2023/06/23 10:40:39;;;;;;;3.70;2.60;;;;;;;35.39;40.52;99268.94;5072631;28;20074;-77
2023/06/23 10:43:07;;;;;;;7.10;3.17;;;;;;;36.20;41.01;99269.56;5054499;28;20037;-77
2023/06/23 10:45:32;;;;;;;4.50;2.50;;;;;;;34.12;41.27;99275.75;5067939;28;20433;-77
2023/06/23 10:47:58;;;;;;;2.80;2.50;;;;;;;32.12;45.18;99292.06;5060913;28;20029;-77
2023/06/23 10:50:29;;;;;;;3.65;2.60;;;;;;;32.17;45.98;99291.06;5069011;28;20027;-76
2023/06/23 10:52:55;;;;;;;3.83;2.55;;;;;;;33.67;42.70;99285.81;5051399;28;20463;-77
2023/06/23 10:55:36;;;;;;;6.75;3.00;;;;;;;34.02;42.16;99293.84;5073140;28;20039;-77
2023/06/23 10:58:13;;;;;;;4.22;2.35;;;;;;;34.34;40.89;99296.97;5075291;28;20028;-77
2023/06/23 11:00:39;;;;;;;5.03;2.47;;;;;;;34.65;40.34;99283.16;5071880;28;20053;-76
2023/06/23 11:03:08;;;;;;;3.08;2.47;;;;;;;34.53;41.32;99299.19;5064253;28;20099;-77
2023/06/23 11:05:39;;;;;;;4.47;2.20;;;;;;;33.13;40.37;99288.56;5071527;28;20036;-76
2023/06/23 11:08:08;;;;;;;3.20;2.38;;;;;;;33.92;39.86;99302.72;5066073;28;20155;-78
2023/06/23 11:10:51;;;;;;;2.80;2.25;;;;;;;36.02;39.26;99306.88;5069425;28;20051;-74
2023/06/23 11:13:16;;;;;;;5.68;2.38;;;;;;;34.54;39.03;99301.66;5074455;28;20025;-80
2023/06/23 11:15:58;;;;;;;3.63;2.60;;;;;;;35.34;37.77;99300.97;5067536;28;20041;-72
2023/06/23 11:18:26;;;;;;;2.38;1.85;;;;;;;33.11;38.97;99311.34;5072615;28;20025;-79
2023/06/23 11:20:51;;;;;;;2.97;2.03;;;;;;;34.83;38.76;99314.66;5075097;28;20054;-80
2023/06/23 11:23:17;;;;;;;2.28;1.92;;;;;;;36.29;35.59;99300.41;5089025;28;20021;-84
2023/06/23 11:25:48;;;;;;;3.35;2.25;;;;;;;36.74;36.46;99298.28;5090921;28;20033;-79
2023/06/23 11:28:30;;;;;;;3.20;2.33;;;;;;;36.56;36.30;99306.31;5078686;28;20422;-76
2023/06/23 11:31:05;;;;;;;2.50;1.95;;;;;;;37.31;35.10;99299.59;5092063;28;20016;-77